| Place | Name | Time | Raw score | Score |
|---|---|---|---|---|
| 1 | Terrapin | 1:20.71 | 1,000 | 420 |
| 2 | Ferreus | 1:20.92 | 900 | 378 |
| 3 | Zany | 1:22.36 | 859 | 361 |
| 4 | KnightBane | 1:22.76 | 827 | 347 |
| 5 | Woody | 1:22.83 | 800 | 336 |
| 6 | Freud | 1:24.51 | 777 | 326 |
| 7 | Host | 1:27.01 | 756 | 317 |
| 8 | Dark Lord Elliott | 1:27.28 | 736 | 309 |
| 9 | Californ1a | 1:34.53 | 718 | 302 |
| 10 | XiQu3sT | 1:37.27 | 700 | 294 |
| 11 | Bile | 1:39.33 | 684 | 287 |
| 12 | Draygone | 1:44.45 | 669 | 281 |
| 13 | Nico | 1:44.62 | 654 | 275 |
| 14 | slug ʕ●.●ʔ | 1:45.70 | 640 | 269 |
| 15 | Mei Rummy-chan | 1:46.48 | 626 | 263 |
| 16 | Jay2a | 1:47.59 | 613 | 257 |
| 17 | jason | 1:47.77 | 600 | 252 |
| 18 | Backgrounds' | 1:48.63 | 588 | 247 |
| 19 | IllKIllU | 1:49.04 | 576 | 242 |
| 20 | Nerf | 1:49.45 | 565 | 237 |
| 21 | Hotride | 1:49.63 | 553 | 232 |
| 22 | Dreigo | 1:49.83 | 542 | 228 |
| 23 | pigpenguin | 1:50.24 | 531 | 223 |
| 24 | Sidewinder Fang | 1:50.42 | 521 | 219 |
| 25 | Bridge | 1:52.53 | 511 | 215 |
| 26 | Waonder | 1:54.14 | 500 | 210 |
| 27 | the local somebody | 1:56.98 | 491 | 206 |
| 28 | SlowScan | 1:59.90 | 481 | 202 |
| 29 | Tribow | 2:00.31 | 471 | 198 |
| 30 | i0nTempest | 2:01.30 | 462 | 194 |
| 31 | cerberus❤ | 2:01.58 | 453 | 190 |
| 32 | Siyzerix | 2:01.93 | 444 | 186 |
| 33 | notguts | 2:02.03 | 435 | 183 |
| 34 | supersmily5 | 2:02.31 | 426 | 179 |
| 35 | Predatory_Balloon | 2:02.69 | 417 | 175 |
| 36 | DefenderOfHyrule | 2:03.16 | 409 | 172 |
| 37 | Void Concept | 2:03.46 | 400 | 168 |
| 38 | [deleted] | 2:03.52 | 392 | 165 |
| 39 | lift your tail for me | 2:03.61 | 384 | 161 |
| 40 | Wolf Black | 2:03.62 | 376 | 158 |
| 41 | Ebeta2 | 2:03.65 | 368 | 155 |
| 42 | FluffyTheZombii | 2:03.86 | 360 | 151 |
| 43 | Spaceburger | 2:03.93 | 352 | 148 |
| 44 | Pristine | 2:04.03 | 345 | 145 |
| 45 | Saberik | 2:04.10 | 337 | 142 |
| 46 | fentanyl lover <3 | 2:04.11 | 330 | 139 |
| 47 | Latapi | 2:04.33 | 322 | 135 |
| 48 | Ruslan145 | 2:04.36 | 315 | 132 |
| 49 | posture check | 2:04.42 | 308 | 129 |
| 50 | SX64 | 2:04.45 | 300 | 126 |
| 51 | Meda | 2:04.49 | 293 | 123 |
| 52 | matheus paiva | 2:04.54 | 286 | 120 |
| 53 | PinesOfChaos | 2:04.55 | 279 | 117 |
| 54 | Camel | 2:04.58 | 272 | 114 |
| 55 | CoJo12 | 2:04.70 | 266 | 112 |
| 56 | gingerette95 | 2:04.71 | 259 | 109 |
| 57 | Kenaz | 2:04.73 | 252 | 106 |
| 57 | NicholasKB19 | 2:04.73 | 252 | 106 |
| 59 | GLUBBA | 2:04.75 | 239 | 100 |
| 60 | levinv270 | 2:04.76 | 232 | 97 |
| 61 | Kinix | 2:04.80 | 226 | 95 |
| 62 | ReallyDumbFox | 2:04.81 | 219 | 92 |
| 63 | JacquetheRipper | 2:04.82 | 213 | 89 |
| 64 | codename_rb | 2:04.89 | 207 | 87 |
| 65 | Гвоздь | 2:04.93 | 200 | 84 |
| 66 | The Unusual Suspect | 2:04.94 | 194 | 81 |
| 67 | PathToV1ctory | 2:05.16 | 188 | 79 |
| 68 | Overlord | 2:05.17 | 182 | 76 |
| 69 | McFolt | 2:05.19 | 176 | 74 |
| 70 | Cancer Liquid | 2:05.26 | 170 | 71 |
| 71 | ThatOneFastGuy | 2:05.33 | 164 | 69 |
| 72 | codythecoder | 2:05.34 | 158 | 66 |
| 73 | Snakefalls | 2:05.36 | 152 | 64 |
| 74 | BYTC | 2:05.37 | 146 | 61 |
| 75 | Dante | 2:05.40 | 140 | 59 |
| 76 | TheMelonGod | 2:05.42 | 134 | 56 |
| 77 | ViryGo19 | 2:05.46 | 129 | 54 |
| 78 | Curious Fish | 2:05.49 | 123 | 52 |
| 79 | Knot | 2:05.50 | 117 | 49 |
| 80 | Jam0344 | 2:05.55 | 112 | 47 |
| 81 | G9 | 2:05.68 | 106 | 45 |
| 82 | khrisround2 | 2:05.77 | 100 | 42 |
| 82 | kashyyyke | 2:05.77 | 100 | 42 |
| 84 | Crado | 2:06.01 | 89 | 37 |
| 85 | VEGA | 2:06.04 | 84 | 35 |
| 86 | Chase | 2:06.14 | 79 | 33 |
| 87 | DROCHEPOLK | 2:06.18 | 73 | 31 |
| 88 | MP X10L | 2:06.19 | 68 | 29 |
| 88 | [BIT]IroncladWarbear | 2:06.19 | 68 | 29 |
| 90 | Taelu | 2:06.36 | 57 | 24 |
| 91 | Joan6694 | 2:06.39 | 52 | 22 |
| 92 | Xeno146 | 2:06.48 | 47 | 20 |
| 93 | Blahaj Blast | 2:06.52 | 41 | 17 |
| 94 | PineFreshGuy | 2:06.53 | 36 | 15 |
| 95 | Verity | 2:06.56 | 31 | 13 |
| 96 | Lazarus | 2:06.63 | 26 | 11 |
| 97 | Tuskenatra | 2:06.65 | 21 | 9 |
| 98 | Epsilon_Knight | 2:06.66 | 16 | 7 |
| 99 | Sev | 2:06.68 | 11 | 5 |
| 100 | Lightshift | 2:06.72 | 6 | 3 |
| 101 | The Biggest [REDACTED] Ogre | 2:06.74 | 0 | 0 |
| 102 | Inzarin | 2:06.76 | 0 | 0 |
| 103 | GaMiiX46 | 2:06.77 | 0 | 0 |
| 104 | Kvoo | 2:06.81 | 0 | 0 |
| 105 | ExtraRaven | 2:06.91 | 0 | 0 |
| 106 | The K-man | 2:06.93 | 0 | 0 |
| 106 | TheEvilMidnightBomber | 2:06.93 | 0 | 0 |
| 108 | Other XIX | 2:06.95 | 0 | 0 |
| 109 | TheEPROM9 LaTeX | 2:06.99 | 0 | 0 |
| 110 | Kypar | 2:07.00 | 0 | 0 |
| 111 | CuddleStrike | 2:07.01 | 0 | 0 |
| 112 | MFHxTiptoe | 2:07.02 | 0 | 0 |
| 113 | Alopex | 2:07.04 | 0 | 0 |
| 114 | Azure Zakura | 2:07.08 | 0 | 0 |
| 115 | Prof. Pinwheel | 2:07.22 | 0 | 0 |
| 116 | SHAaD_Sicod | 2:07.33 | 0 | 0 |
| 117 | HJQLF | 2:07.35 | 0 | 0 |
| 118 | CampingCarl | 2:07.36 | 0 | 0 |
| 119 | lav. | 2:07.37 | 0 | 0 |
| 120 | Gyodesis | 2:07.41 | 0 | 0 |
| 121 | 16aroth6 | 2:07.43 | 0 | 0 |
| 122 | gahro_nahvah | 2:07.48 | 0 | 0 |
| 123 | RaiderZulu | 2:07.49 | 0 | 0 |
| 124 | SukairenTTV | 2:07.59 | 0 | 0 |
| 125 | JDthe3rd | 2:07.60 | 0 | 0 |
| 126 | Dimitri | 2:07.81 | 0 | 0 |
| 127 | Hijacker02 | 2:07.82 | 0 | 0 |
| 128 | Defect | 2:07.90 | 0 | 0 |
| 129 | Shroom | 2:07.99 | 0 | 0 |
| 130 | replikaeyes | 2:08.00 | 0 | 0 |
| 131 | SIGSTACKFAULT | 2:08.03 | 0 | 0 |
| 132 | LobaDK | 2:08.11 | 0 | 0 |
| 133 | GDABaiano | 2:08.17 | 0 | 0 |
| 134 | Sartha | 2:08.18 | 0 | 0 |
| 135 | ICYVEVO | 2:08.23 | 0 | 0 |
| 136 | DethHoun | 2:08.24 | 0 | 0 |
| 137 | Maxter Max | 2:08.25 | 0 | 0 |
| 138 | kriz_chan | 2:08.31 | 0 | 0 |
| 139 | Cptnbean | 2:08.37 | 0 | 0 |
| 140 | Benji | 2:08.41 | 0 | 0 |
| 141 | Silver~ | 2:08.50 | 0 | 0 |
| 142 | Greeny^ | 2:08.53 | 0 | 0 |
| 143 | Timme701 | 2:08.60 | 0 | 0 |
| 144 | Viridus | 2:08.71 | 0 | 0 |
| 145 | Серена Грац | 2:08.75 | 0 | 0 |
| 146 | blur | 2:08.82 | 0 | 0 |
| 147 | SW18 | 2:08.83 | 0 | 0 |
| 148 | Moonie | 2:08.96 | 0 | 0 |
| 149 | pcl219 | 2:09.00 | 0 | 0 |
| 150 | Alrunes | 2:09.08 | 0 | 0 |
| 151 | IIRMPII | 2:09.09 | 0 | 0 |
| 152 | HyperNova | 2:09.16 | 0 | 0 |
| 153 | skuzzzy | 2:09.19 | 0 | 0 |
| 154 | Defiance_LLK | 2:09.28 | 0 | 0 |
| 155 | Big Chungus2010 | 2:09.39 | 0 | 0 |
| 156 | Mr. $7.63 | 2:09.40 | 0 | 0 |
| 157 | TinFoilMkIV | 2:09.46 | 0 | 0 |
| 158 | EpicN The Empty | 2:09.49 | 0 | 0 |
| 159 | Potted Mushroom | 2:09.56 | 0 | 0 |
| 160 | Ch1ll4x333 | 2:09.60 | 0 | 0 |
| 161 | Mossy Shush | 2:09.63 | 0 | 0 |
| 162 | Jeżyk | 2:09.64 | 0 | 0 |
| 163 | Rusty | 2:09.74 | 0 | 0 |
| 163 | NeonChaosAwoo | 2:09.74 | 0 | 0 |
| 165 | ash | 2:09.75 | 0 | 0 |
| 166 | Onneyon | 2:09.79 | 0 | 0 |
| 167 | A very silly man indeed | 2:09.96 | 0 | 0 |
| 167 | 1MBStudios | 2:09.96 | 0 | 0 |
| 167 | Blu3 | 2:09.96 | 0 | 0 |
| 167 | Nadius | 2:09.96 | 0 | 0 |
| 171 | Mr. Doggy | 2:10.00 | 0 | 0 |
| 171 | Embylles | 2:10.00 | 0 | 0 |
| 173 | Shinchi Shiroi | 2:10.03 | 0 | 0 |
| 174 | itsukarine | 2:10.04 | 0 | 0 |
| 174 | The Mighty Condor | 2:10.04 | 0 | 0 |
| 176 | TheMadDoctor96 | 2:10.13 | 0 | 0 |
| 177 | RL | 2:10.14 | 0 | 0 |
| 178 | toasT | 2:10.16 | 0 | 0 |
| 179 | Plasmawario | 2:10.17 | 0 | 0 |
| 180 | Lémohn | 2:10.19 | 0 | 0 |
| 181 | Kosvid | 2:10.20 | 0 | 0 |
| 182 | menkaru | 2:10.24 | 0 | 0 |
| 183 | BlueTorch | 2:10.28 | 0 | 0 |
| 184 | O' The Iron E | 2:10.32 | 0 | 0 |
| 185 | Sir Johan | 2:10.40 | 0 | 0 |
| 186 | Jarminx | 2:10.53 | 0 | 0 |
| 187 | VectorBot | 2:10.54 | 0 | 0 |
| 188 | Battle Banana Chris Handsom | 2:10.58 | 0 | 0 |
| 189 | Entropy can't catch me. | 2:10.75 | 0 | 0 |
| 189 | The Good Gaming Dragon | 2:10.75 | 0 | 0 |
| 191 | Tem | 2:10.78 | 0 | 0 |
| 192 | Kaliphear | 2:10.83 | 0 | 0 |
| 193 | e⁻ | 2:10.85 | 0 | 0 |
| 194 | Astrolight | 2:10.95 | 0 | 0 |
| 195 | EleventyB | 2:10.96 | 0 | 0 |
| 196 | HunterPlayz | 2:10.97 | 0 | 0 |
| 197 | [deleted] | 2:10.99 | 0 | 0 |
| 197 | Toastmaster | 2:10.99 | 0 | 0 |
| 199 | Monark10 | 2:11.01 | 0 | 0 |
| 200 | Conduit | 2:11.03 | 0 | 0 |
| 201 | Western Ice Noodle | 2:11.04 | 0 | 0 |
| 202 | IanRosk | 2:11.06 | 0 | 0 |
| 203 | Qioury | 2:11.07 | 0 | 0 |
| 204 | ExtremeGizmo122 | 2:11.09 | 0 | 0 |
| 205 | MAT D.R.⎛⎝≥⏝⏝≤⎠⎞ | 2:11.11 | 0 | 0 |
| 206 | xanthousphoenix | 2:11.12 | 0 | 0 |
| 206 | schNEO | 2:11.12 | 0 | 0 |
| 208 | futpib | 2:11.17 | 0 | 0 |
| 209 | TP-N.co PC-118 B-10001110101 | 2:11.20 | 0 | 0 |
| 210 | Bistdocs | 2:11.23 | 0 | 0 |
| 211 | Viridian | 2:11.25 | 0 | 0 |
| 212 | Gnose | 2:11.28 | 0 | 0 |
| 213 | Edragon13 | 2:11.33 | 0 | 0 |
| 214 | lord commander | 2:11.36 | 0 | 0 |
| 215 | Birb | 2:11.43 | 0 | 0 |
| 215 | 4onen | 2:11.43 | 0 | 0 |
| 217 | Gloþ | 2:11.69 | 0 | 0 |
| 218 | Purple Bomber | 2:11.71 | 0 | 0 |
| 218 | burger | 2:11.71 | 0 | 0 |
| 220 | Paparazzi | 2:11.73 | 0 | 0 |
| 220 | Rombommind | 2:11.73 | 0 | 0 |
| 220 | SunsetBAE | 2:11.73 | 0 | 0 |
| 223 | Kibōchen | 2:11.74 | 0 | 0 |
| 223 | Mar_Veloz | 2:11.74 | 0 | 0 |
| 225 | Eleven27 | 2:11.93 | 0 | 0 |
| 226 | CeruleanAzura | 2:11.94 | 0 | 0 |
| 226 | Greenfire DX | 2:11.94 | 0 | 0 |
| 228 | Skrigar | 2:11.97 | 0 | 0 |
| 229 | Sky_ | 2:12.00 | 0 | 0 |
| 230 | Big Bootiecoot | 2:12.14 | 0 | 0 |
| 231 | CodedCrow | 2:12.19 | 0 | 0 |
| 232 | Awesomedan | 2:12.33 | 0 | 0 |
| 233 | Hekko | 2:12.44 | 0 | 0 |
| 234 | FifteenBread | 2:12.46 | 0 | 0 |
| 235 | Super_Shadow57 | 2:12.50 | 0 | 0 |
| 236 | Seschbee | 2:12.51 | 0 | 0 |
| 237 | XMeatPounder99X | 2:12.54 | 0 | 0 |
| 238 | Pompous Whale | 2:12.77 | 0 | 0 |
| 239 | Loopsty | 2:12.79 | 0 | 0 |
| 240 | Agent Starlight | 2:12.83 | 0 | 0 |
| 241 | Readek | 2:12.84 | 0 | 0 |
| 242 | A.K.S. | 2:12.86 | 0 | 0 |
| 243 | R. | 2:12.87 | 0 | 0 |
| 244 | Skuzzles | 2:12.94 | 0 | 0 |
| 245 | Shyverin | 2:13.00 | 0 | 0 |
| 246 | Dislin | 2:13.04 | 0 | 0 |
| 246 | F.L.P-e tank24 | 2:13.04 | 0 | 0 |
| 248 | LOLO FAK | 2:13.13 | 0 | 0 |
| 249 | BombLance | 2:13.17 | 0 | 0 |
| 250 | GTNeon | 2:13.19 | 0 | 0 |
| 251 | KWP | 2:13.26 | 0 | 0 |
| 252 | clu | 2:13.27 | 0 | 0 |
| 253 | Player145 | 2:13.29 | 0 | 0 |
| 254 | AyyLmeow | 2:13.32 | 0 | 0 |
| 255 | BlacKat | 2:13.37 | 0 | 0 |
| 256 | Luminous | 2:13.41 | 0 | 0 |
| 257 | Nixill | 2:13.45 | 0 | 0 |
| 258 | RetaliationGuy YT | 2:13.55 | 0 | 0 |
| 259 | Myogi Night | 2:13.57 | 0 | 0 |
| 259 | Spacefarer | 2:13.57 | 0 | 0 |
| 261 | FRX | 2:13.58 | 0 | 0 |
| 262 | 猫かわいい | 2:13.74 | 0 | 0 |
| 263 | Fleabag | 2:13.81 | 0 | 0 |
| 264 | Naikel [FR] | 2:13.84 | 0 | 0 |
| 265 | Iris | 2:13.85 | 0 | 0 |
| 266 | Xyvine | 2:13.88 | 0 | 0 |
| 267 | TTV CaedVT | 2:13.92 | 0 | 0 |
| 268 | Lud | Forest | 2:13.95 | 0 | 0 |
| 269 | Thermos | 2:14.01 | 0 | 0 |
| 270 | Sayrix | 2:14.04 | 0 | 0 |
| 271 | NoBody | 2:14.08 | 0 | 0 |
| 272 | BulletRain23 | 2:14.09 | 0 | 0 |
| 273 | youtube vembress | 2:14.12 | 0 | 0 |
| 274 | Sniggles | 2:14.13 | 0 | 0 |
| 274 | SunRed | 2:14.13 | 0 | 0 |
| 276 | Monitor3437 | 2:14.19 | 0 | 0 |
| 277 | DEMON | 2:14.22 | 0 | 0 |
| 278 | Zane Wuffy | 2:14.31 | 0 | 0 |
| 279 | LittleKittyArtemis | 2:14.33 | 0 | 0 |
| 280 | Dijkstra | 2:14.34 | 0 | 0 |
| 281 | Ultor | 2:14.44 | 0 | 0 |
| 282 | Jester Thomas | 2:14.47 | 0 | 0 |
| 283 | bacon | 2:14.62 | 0 | 0 |
| 284 | DvN | 2:14.65 | 0 | 0 |
| 285 | Idle Asides | 2:14.66 | 0 | 0 |
| 286 | ant | 2:14.80 | 0 | 0 |
| 287 | Xandrak | 2:14.81 | 0 | 0 |
| 288 | CephaloPOTUS | 2:14.84 | 0 | 0 |
| 289 | sacrafish | 2:14.86 | 0 | 0 |
| 289 | JohnCorby | 2:14.86 | 0 | 0 |
| 291 | FizzPop | 2:14.90 | 0 | 0 |
| 292 | Delhjiko | 2:14.91 | 0 | 0 |
| 293 | JayBoneJay | 2:14.92 | 0 | 0 |
| 294 | MyurrDurr | 2:14.93 | 0 | 0 |
| 295 | TantasStarke | 2:15.03 | 0 | 0 |
| 296 | Queritz | 2:15.11 | 0 | 0 |
| 297 | Vivid Empress | 2:15.14 | 0 | 0 |
| 298 | Detective Man | 2:15.27 | 0 | 0 |
| 299 | -zaz23- | 2:15.46 | 0 | 0 |
| 300 | Dracheron | 2:15.52 | 0 | 0 |
| 301 | SirDan | 2:15.60 | 0 | 0 |
| 302 | Serenak | 2:15.63 | 0 | 0 |
| 302 | Haunted Pleb | 2:15.63 | 0 | 0 |
| 302 | Xiotis | 2:15.63 | 0 | 0 |
| 305 | Domino | 2:15.65 | 0 | 0 |
| 306 | spLoWatt | 2:15.71 | 0 | 0 |
| 307 | Cody | 2:15.77 | 0 | 0 |
| 308 | Ozymandias | 2:15.90 | 0 | 0 |
| 309 | Grimmy | 2:15.92 | 0 | 0 |
| 310 | Lawrence | 2:16.00 | 0 | 0 |
| 310 | russ117 | 2:16.00 | 0 | 0 |
| 312 | Frozen Dino | 2:16.05 | 0 | 0 |
| 313 | Wildclaw | 2:16.07 | 0 | 0 |
| 314 | Yuki Arika Muze | 2:16.12 | 0 | 0 |
| 315 | D0HERRITT | 2:16.21 | 0 | 0 |
| 316 | MatheMSI | 2:16.22 | 0 | 0 |
| 317 | PartTimeCanadian | 2:16.24 | 0 | 0 |
| 318 | Retromancer | 2:16.27 | 0 | 0 |
| 319 | Indy1984 | 2:16.31 | 0 | 0 |
| 320 | Ktee | 2:16.38 | 0 | 0 |
| 321 | DobreBobre | 2:16.47 | 0 | 0 |
| 322 | Hyperdron | 2:16.52 | 0 | 0 |
| 323 | Disatroja | 2:16.59 | 0 | 0 |
| 324 | BuzZoiD | 2:16.69 | 0 | 0 |
| 325 | Aotia | Qubic | 2:16.70 | 0 | 0 |
| 326 | [deleted] | 2:16.74 | 0 | 0 |
| 327 | Spearmint | 2:16.76 | 0 | 0 |
| 328 | Mazerswift | 2:16.89 | 0 | 0 |
| 329 | FOG BLAST THE VENT CORE | 2:16.98 | 0 | 0 |
| 330 | Twister | 2:16.99 | 0 | 0 |
| 331 | Iron_Angmar | 2:17.01 | 0 | 0 |
| 332 | Screws | 2:17.33 | 0 | 0 |
| 333 | Todd Bonzalez | 2:17.34 | 0 | 0 |
| 334 | Norz-Öril'Kern | 2:17.36 | 0 | 0 |
| 335 | Sunnydan | 2:17.51 | 0 | 0 |
| 336 | Neneko | 2:17.62 | 0 | 0 |
| 337 | 2:17.78 | 0 | 0 | |
| 338 | ^1WᴀʀᴘWɪʀᴇ | 2:17.91 | 0 | 0 |
| 339 | Mnemonic | 2:17.94 | 0 | 0 |
| 340 | Tuli | 2:17.96 | 0 | 0 |
| 341 | SunlessSoph | 2:18.03 | 0 | 0 |
| 342 | Mud | 2:18.07 | 0 | 0 |
| 343 | Cerberus14 | 2:18.12 | 0 | 0 |
| 343 | OnyonSwomp | 2:18.12 | 0 | 0 |
| 345 | Divided | 2:18.46 | 0 | 0 |
| 345 | Ejotapg | 2:18.46 | 0 | 0 |
| 347 | Jimmy Gibbs | 2:18.60 | 0 | 0 |
| 348 | PuppySky | 2:18.97 | 0 | 0 |
| 349 | YoloMoth | 2:19.08 | 0 | 0 |
| 350 | Lil O.D. | 2:19.14 | 0 | 0 |
| 351 | Sunzara | 2:19.20 | 0 | 0 |
| 352 | Big Unc Benjamin | 2:19.28 | 0 | 0 |
| 353 | SP** | 2:19.36 | 0 | 0 |
| 354 | Crubo | 2:19.42 | 0 | 0 |
| 355 | Apocalyptic Bunny | 2:19.47 | 0 | 0 |
| 355 | CrazyMaurice120 | 2:19.47 | 0 | 0 |
| 357 | Leviticus Blue | 2:19.48 | 0 | 0 |
| 358 | TemporalFox | 2:19.55 | 0 | 0 |
| 359 | Cerberus DCXVI | 2:19.57 | 0 | 0 |
| 360 | Samn | 2:19.60 | 0 | 0 |
| 361 | BumbleFunkMcGee | 2:19.62 | 0 | 0 |
| 362 | rbrules | 2:19.86 | 0 | 0 |
| 363 | Danon5 | 2:19.94 | 0 | 0 |
| 364 | Trackmani? | 2:20.08 | 0 | 0 |
| 365 | Mister JT | 2:20.19 | 0 | 0 |
| 366 | Lady Vira | 2:20.28 | 0 | 0 |
| 367 | Mr. Bird | 2:20.33 | 0 | 0 |
| 368 | ONLY STRAIGHT IS NORMAL, FREAKS! | 2:20.38 | 0 | 0 |
| 369 | VI_fizz | 2:20.44 | 0 | 0 |
| 370 | FatherGamble | 2:20.70 | 0 | 0 |
| 371 | Rhetorical Question | 2:20.73 | 0 | 0 |
| 372 | Shyylock | 2:20.74 | 0 | 0 |
| 373 | krizithy | 2:20.80 | 0 | 0 |
| 374 | Unlight369 | 2:20.91 | 0 | 0 |
| 375 | Roggee | 2:20.96 | 0 | 0 |
| 376 | Derdoron | 2:21.00 | 0 | 0 |
| 376 | greenscorpeon3 | 2:21.00 | 0 | 0 |
| 376 | Animax | 2:21.00 | 0 | 0 |
| 379 | KaBeu | 2:21.02 | 0 | 0 |
| 380 | concil | 2:21.07 | 0 | 0 |
| 381 | Jorban | 2:21.12 | 0 | 0 |
| 382 | [REDACTED] | 2:21.13 | 0 | 0 |
| 383 | Stracker | 2:21.16 | 0 | 0 |
| 384 | GaiaGaiyus | 2:21.17 | 0 | 0 |
| 385 | Topaz95 | 2:21.30 | 0 | 0 |
| 386 | Earthnuker | 2:21.44 | 0 | 0 |
| 387 | krakentoa | 2:21.45 | 0 | 0 |
| 388 | Ashton_bro | 2:21.62 | 0 | 0 |
| 389 | TalosTeaches.ttv | 2:21.81 | 0 | 0 |
| 390 | snugglebottom | 2:21.87 | 0 | 0 |
| 391 | Дверьё | 2:21.98 | 0 | 0 |
| 392 | Ryowulf768 | 2:21.99 | 0 | 0 |
| 393 | Binko Bonko | 2:22.05 | 0 | 0 |
| 394 | Cooler Mensch | 2:22.15 | 0 | 0 |
| 395 | Pteroborne | 2:22.19 | 0 | 0 |
| 396 | Zombie | 2:22.25 | 0 | 0 |
| 397 | [Lard] Kriltch | 2:22.27 | 0 | 0 |
| 398 | [BIT] Iroden | 2:22.36 | 0 | 0 |
| 399 | baakstaff | 2:22.41 | 0 | 0 |
| 400 | Metalyph | 2:22.50 | 0 | 0 |
| 401 | Pasimero | 2:22.55 | 0 | 0 |
| 401 | knoxisnotdead | 2:22.55 | 0 | 0 |
| 403 | Naoroji | 2:22.60 | 0 | 0 |
| 404 | Uganda Knuckles | 2:22.65 | 0 | 0 |
| 405 | Tech0verlord | 2:22.74 | 0 | 0 |
| 406 | maddison135 | 2:22.83 | 0 | 0 |
| 407 | Edesto | 2:23.00 | 0 | 0 |
| 407 | El_Nacho | 2:23.00 | 0 | 0 |
| 409 | samson13 | 2:23.08 | 0 | 0 |
| 410 | ErzoopaRTR | 2:23.13 | 0 | 0 |
| 411 | Raynland McNuggets | 2:23.15 | 0 | 0 |
| 412 | DemoKnight Or Busty | 2:23.16 | 0 | 0 |
| 413 | Interpunct | 2:23.21 | 0 | 0 |
| 414 | IIMr.WhiteII | 2:23.30 | 0 | 0 |
| 415 | tenta_ | 2:23.34 | 0 | 0 |
| 416 | markschuurman1990 | 2:23.35 | 0 | 0 |
| 417 | Bones | 2:23.39 | 0 | 0 |
| 418 | Giant From The East | 2:23.42 | 0 | 0 |
| 419 | TEZZA | 2:23.46 | 0 | 0 |
| 420 | Weird Pumpkin | 2:23.50 | 0 | 0 |
| 421 | Nephuxs | 2:23.55 | 0 | 0 |
| 422 | TheRegalKing | 2:23.61 | 0 | 0 |
| 423 | ✪ Frok ✪ | 2:23.62 | 0 | 0 |
| 424 | sWilder9 | 2:23.65 | 0 | 0 |
| 425 | Jarek718 | 2:23.71 | 0 | 0 |
| 426 | Dyltra | 2:23.75 | 0 | 0 |
| 427 | NuggetTheBigBoi | 2:23.91 | 0 | 0 |
| 428 | sendthefish | 2:24.11 | 0 | 0 |
| 429 | Ame | 2:24.17 | 0 | 0 |
| 430 | A̶͓̓z̷͓̍ũ̴̩r̷͔͐e̴ | 2:24.18 | 0 | 0 |
| 430 | Vented5093 | 2:24.18 | 0 | 0 |
| 432 | John Knight | 2:24.25 | 0 | 0 |
| 433 | le0n | 2:24.26 | 0 | 0 |
| 434 | Seinah | 2:24.27 | 0 | 0 |
| 435 | 『QPUNeptune』 | 2:24.29 | 0 | 0 |
| 436 | heavylink2301 | 2:24.46 | 0 | 0 |
| 436 | Chicken_Tendy | 2:24.46 | 0 | 0 |
| 438 | Loving Wolf | 2:24.54 | 0 | 0 |
| 439 | P0LL0 | 2:24.63 | 0 | 0 |
| 440 | Moodeng | 2:24.64 | 0 | 0 |
| 441 | Empyrrean | 2:24.66 | 0 | 0 |
| 442 | Pooctus | 2:24.75 | 0 | 0 |
| 443 | The Random Guy | 2:24.85 | 0 | 0 |
| 444 | Bandit | 2:24.99 | 0 | 0 |
| 445 | Sunaryt | 2:25.04 | 0 | 0 |
| 446 | Dosilox | 2:25.14 | 0 | 0 |
| 447 | James "Papa Het" Hetfield | 2:25.24 | 0 | 0 |
| 448 | CuteSuissyLePoneySuisse | 2:25.35 | 0 | 0 |
| 449 | Jutkutus | 2:25.44 | 0 | 0 |
| 450 | A Live Studio Audience | 2:25.52 | 0 | 0 |
| 451 | Dan | 2:25.53 | 0 | 0 |
| 452 | Therio | 2:25.55 | 0 | 0 |
| 452 | h | 2:25.55 | 0 | 0 |
| 454 | A Very Angy Opossum | 2:25.56 | 0 | 0 |
| 455 | Gammeta | 2:25.59 | 0 | 0 |
| 456 | A Moldy Orange | 2:25.61 | 0 | 0 |
| 456 | Saujii2 | 2:25.61 | 0 | 0 |
| 458 | Nickel | 2:25.65 | 0 | 0 |
| 459 | Nevorist | 2:25.78 | 0 | 0 |
| 460 | Pexillien | 2:25.97 | 0 | 0 |
| 461 | Keiyo | 2:26.08 | 0 | 0 |
| 462 | Jokul | 2:26.37 | 0 | 0 |
| 463 | Ape Tea | 2:26.40 | 0 | 0 |
| 464 | Zoey Blackwood | 2:26.49 | 0 | 0 |
| 465 | Jass5991 | 2:26.50 | 0 | 0 |
| 466 | Vin Diesel Mailbox | 2:26.55 | 0 | 0 |
| 467 | mcatooch | 2:26.60 | 0 | 0 |
| 468 | Warriot | 2:26.66 | 0 | 0 |
| 469 | Hirochi | 2:26.73 | 0 | 0 |
| 470 | Winter's Crescendo | 2:26.80 | 0 | 0 |
| 471 | Razgriez | 2:26.82 | 0 | 0 |
| 471 | Seere | 2:26.82 | 0 | 0 |
| 473 | StephanoLight | 2:26.85 | 0 | 0 |
| 474 | Spartan117® | 2:26.92 | 0 | 0 |
| 475 | bmrc97 | 2:27.03 | 0 | 0 |
| 476 | Pryzee7 | 2:27.05 | 0 | 0 |
| 477 | Pointed Mammal29 | 2:27.11 | 0 | 0 |
| 478 | das | 2:27.22 | 0 | 0 |
| 479 | Ditzy_Set | 2:27.42 | 0 | 0 |
| 480 | Dorphan | 2:27.62 | 0 | 0 |
| 481 | Cyero | 2:27.63 | 0 | 0 |
| 482 | Grzeboc_13 | 2:27.85 | 0 | 0 |
| 483 | Hornsking | 2:28.07 | 0 | 0 |
| 484 | Seshiruseth | 2:28.11 | 0 | 0 |
| 485 | ElOsoPervertido | 2:28.20 | 0 | 0 |
| 486 | Shay | 2:28.21 | 0 | 0 |
| 487 | LachenJager | 2:28.27 | 0 | 0 |
| 488 | Crespojazzman | 2:28.47 | 0 | 0 |
| 489 | Ramalis | 2:28.51 | 0 | 0 |
| 490 | Andy95 | 2:28.55 | 0 | 0 |
| 491 | Renault Modus phase 2 | 2:28.57 | 0 | 0 |
| 492 | Cathy | 2:28.58 | 0 | 0 |
| 493 | [deleted] | 2:28.61 | 0 | 0 |
| 494 | Syntax | 2:28.71 | 0 | 0 |
| 495 | HISKI LP | 2:28.72 | 0 | 0 |
| 496 | Lucki | 2:28.76 | 0 | 0 |
| 497 | Alikey | 2:28.78 | 0 | 0 |
| 498 | Cyxxus | 2:28.85 | 0 | 0 |
| 499 | Birdiot | 2:28.91 | 0 | 0 |
| 499 | ADamnDerpName | 2:28.91 | 0 | 0 |
| 501 | Rustal | 2:28.96 | 0 | 0 |
| 501 | [iNk] Primus | 2:28.96 | 0 | 0 |
| 503 | danny1234331 | 2:28.97 | 0 | 0 |
| 504 | doomsday device | 2:29.04 | 0 | 0 |
| 505 | AnimeHentaiYuriFanboy | 2:29.07 | 0 | 0 |
| 506 | [deleted] | 2:29.10 | 0 | 0 |
| 507 | Wolf | 2:29.12 | 0 | 0 |
| 508 | GlowDoggo | 2:29.21 | 0 | 0 |
| 508 | DieselFace | 2:29.21 | 0 | 0 |
| 510 | ZaptorZap | 2:29.33 | 0 | 0 |
| 511 | Shnurbs | 2:29.68 | 0 | 0 |
| 511 | Nova | 2:29.68 | 0 | 0 |
| 513 | sizifov | 2:29.70 | 0 | 0 |
| 514 | Yarimi | 2:29.77 | 0 | 0 |
| 515 | StoicSirius | 2:29.78 | 0 | 0 |
| 516 | bluesiphon | 2:29.93 | 0 | 0 |
| 517 | TajPilon | 2:30.00 | 0 | 0 |
| 518 | reRun | 2:30.09 | 0 | 0 |
| 519 | RunTheStairs | 2:30.15 | 0 | 0 |
| 520 | General Kenobi | 2:30.27 | 0 | 0 |
| 521 | DPftw | 2:30.31 | 0 | 0 |
| 522 | Ae1oURed | 2:30.33 | 0 | 0 |
| 523 | TheZelen | 2:30.35 | 0 | 0 |
| 524 | Kerusos | 2:30.42 | 0 | 0 |
| 525 | Alesha170 | 2:30.44 | 0 | 0 |
| 526 | < blank > | 2:30.47 | 0 | 0 |
| 527 | PolychromeVirus | 2:30.48 | 0 | 0 |
| 528 | 문경왕개미 | 2:30.49 | 0 | 0 |
| 529 | Saint Pierre | 2:30.54 | 0 | 0 |
| 529 | Jappen | 2:30.54 | 0 | 0 |
| 529 | Ion | 2:30.54 | 0 | 0 |
| 532 | Drakir | 2:30.56 | 0 | 0 |
| 533 | Helpeg | 2:30.89 | 0 | 0 |
| 534 | Boomer McGeezer | 2:30.90 | 0 | 0 |
| 535 | Eddy | 2:31.23 | 0 | 0 |
| 535 | Voltaic | 2:31.23 | 0 | 0 |
| 537 | 321longshot | 2:31.60 | 0 | 0 |
| 538 | Boomslang | 2:31.64 | 0 | 0 |
| 539 | Simon Evo | 2:31.77 | 0 | 0 |
| 540 | 25 минут кайфа | 2:31.82 | 0 | 0 |
| 541 | ★ Angel♥~ ★ | 2:31.93 | 0 | 0 |
| 542 | I Sleep In Polos | 2:31.94 | 0 | 0 |
| 543 | Louis Thau | 2:32.06 | 0 | 0 |
| 543 | Slenderem | 2:32.06 | 0 | 0 |
| 545 | Setherouth | 2:32.10 | 0 | 0 |
| 546 | Cranberry (Gambit Enjoyer) | 2:32.11 | 0 | 0 |
| 547 | Kaamalauppias | 2:32.15 | 0 | 0 |
| 548 | Narco Zero | 2:32.23 | 0 | 0 |
| 549 | Camyx | 2:32.26 | 0 | 0 |
| 550 | Loune Fire | 2:32.34 | 0 | 0 |
| 551 | D# | 2:32.55 | 0 | 0 |
| 552 | fischpferd | 2:32.67 | 0 | 0 |
| 553 | Oonga J Boonga | 2:32.78 | 0 | 0 |
| 554 | NagaKnight | 2:32.87 | 0 | 0 |
| 555 | CMDRVITELL | 2:32.92 | 0 | 0 |
| 556 | Ayre | 2:32.93 | 0 | 0 |
| 557 | cheif22 | 2:33.10 | 0 | 0 |
| 558 | Pkaradactyl | 2:33.16 | 0 | 0 |
| 559 | ]Xenon[Shadow] | 2:33.23 | 0 | 0 |
| 560 | Redx | 2:33.31 | 0 | 0 |
| 561 | bumblebee | 2:33.36 | 0 | 0 |
| 562 | TheBoredguyyy | 2:33.50 | 0 | 0 |
| 563 | gusforester | 2:33.52 | 0 | 0 |
| 564 | Ornar | 2:33.60 | 0 | 0 |
| 565 | Shinokiba | 2:33.61 | 0 | 0 |
| 566 | Krull | 2:33.64 | 0 | 0 |
| 567 | FRΛCTURΞD SOUL | 2:33.74 | 0 | 0 |
| 568 | siafa | 2:33.87 | 0 | 0 |
| 569 | MOCOCHINCHOL | 2:33.96 | 0 | 0 |
| 570 | starhorder | 2:34.08 | 0 | 0 |
| 571 | gopability | 2:34.12 | 0 | 0 |
| 572 | BoneCrack | 2:34.16 | 0 | 0 |
| 573 | Tagor12 | 2:34.28 | 0 | 0 |
| 574 | squirreljiz | 2:34.47 | 0 | 0 |
| 575 | BenHorizon | 2:34.58 | 0 | 0 |
| 576 | EmeraldSlash | 2:34.66 | 0 | 0 |
| 577 | mmph | 2:34.72 | 0 | 0 |
| 578 | What a save! | 2:34.78 | 0 | 0 |
| 579 | boroboroboroboroboro | 2:34.91 | 0 | 0 |
| 580 | Zoig | 2:34.99 | 0 | 0 |
| 581 | Scarlet | 2:35.10 | 0 | 0 |
| 582 | DraconicBurners | 2:35.17 | 0 | 0 |
| 583 | Dumb Poo Baby | 2:35.27 | 0 | 0 |
| 584 | TheFluffyDragon/JBSTheGamer | 2:35.30 | 0 | 0 |
| 585 | Jezo | 2:35.35 | 0 | 0 |
| 586 | TS_Mind_Swept | 2:35.38 | 0 | 0 |
| 587 | Zodiac | 2:35.41 | 0 | 0 |
| 588 | Typhon | 2:35.46 | 0 | 0 |
| 589 | Redsrule | 2:35.52 | 0 | 0 |
| 590 | cyace | 2:35.59 | 0 | 0 |
| 591 | Spoilt | 2:35.71 | 0 | 0 |
| 592 | Arthur | 2:35.77 | 0 | 0 |
| 593 | Adrimg_rider | 2:35.87 | 0 | 0 |
| 594 | Enzyme Machine | 2:35.91 | 0 | 0 |
| 595 | eik the cat | 2:36.04 | 0 | 0 |
| 595 | R1PP | 2:36.04 | 0 | 0 |
| 597 | Locura | 2:36.08 | 0 | 0 |
| 598 | Mike kinsella | 2:36.10 | 0 | 0 |
| 599 | SlenderBonnie | 2:36.29 | 0 | 0 |
| 600 | pox | 2:36.39 | 0 | 0 |
| 601 | Siyan | 2:36.43 | 0 | 0 |
| 602 | TheDukeOfTaco | 2:36.57 | 0 | 0 |
| 603 | MapleSyrup | 2:36.61 | 0 | 0 |
| 604 | Tibbs | 2:36.62 | 0 | 0 |
| 604 | DriveOffTheCliff | 2:36.62 | 0 | 0 |
| 606 | EnderKill98 | 2:36.63 | 0 | 0 |
| 607 | timanza | 2:36.65 | 0 | 0 |
| 608 | Krawly | 2:36.66 | 0 | 0 |
| 609 | delfiler | 2:36.69 | 0 | 0 |
| 610 | EdgeHH | 2:36.83 | 0 | 0 |
| 610 | DJairmaster | 2:36.83 | 0 | 0 |
| 612 | SirWanksalot | 2:36.90 | 0 | 0 |
| 613 | Dekkosun™ | 2:36.93 | 0 | 0 |
| 614 | Peter Parkour | 2:36.96 | 0 | 0 |
| 615 | Acedia | 2:36.99 | 0 | 0 |
| 616 | raviolifun | 2:37.15 | 0 | 0 |
| 617 | [NBD] PizzaHutDoxen | 2:37.22 | 0 | 0 |
| 618 | Dragnar The Meme God | 2:37.25 | 0 | 0 |
| 619 | Trishphyre Paradox Developer | 2:37.55 | 0 | 0 |
| 620 | KramerPacer83 | 2:37.59 | 0 | 0 |
| 621 | canman | 2:37.60 | 0 | 0 |
| 621 | astralFitz | 2:37.60 | 0 | 0 |
| 623 | DrPiggler | 2:37.62 | 0 | 0 |
| 624 | Hars | 2:37.67 | 0 | 0 |
| 625 | Jam Over | 2:37.82 | 0 | 0 |
| 626 | kenkas | 2:37.87 | 0 | 0 |
| 627 | SERAVEE | 2:37.98 | 0 | 0 |
| 628 | Questy | 2:38.08 | 0 | 0 |
| 629 | Ubi | 2:38.28 | 0 | 0 |
| 630 | Machine Entity | 2:38.39 | 0 | 0 |
| 631 | Echor | 2:38.40 | 0 | 0 |
| 632 | DishArray | 2:38.49 | 0 | 0 |
| 633 | Neko14789 | 2:38.52 | 0 | 0 |
| 634 | JeffTheBruh | 2:38.56 | 0 | 0 |
| 635 | Pelerin | 2:38.72 | 0 | 0 |
| 636 | Arrav | 2:38.76 | 0 | 0 |
| 637 | science_team.png | 2:38.80 | 0 | 0 |
| 638 | BrandonK-TN | 2:39.15 | 0 | 0 |
| 639 | Sample Text | 2:39.25 | 0 | 0 |
| 640 | Finmorr | 2:39.26 | 0 | 0 |
| 641 | wanderingradio | 2:39.30 | 0 | 0 |
| 642 | Breno_SO | 2:39.31 | 0 | 0 |
| 643 | GOOSE SATAN! | 2:39.50 | 0 | 0 |
| 644 | NyctoGT | 2:39.58 | 0 | 0 |
| 645 | cocob4 | 2:39.75 | 0 | 0 |
| 646 | olivqe | 2:40.01 | 0 | 0 |
| 647 | Natr | 2:40.08 | 0 | 0 |
| 648 | ShotgunSalad | 2:40.09 | 0 | 0 |
| 649 | Winters | 2:40.56 | 0 | 0 |
| 650 | ElHombre86 | 2:40.62 | 0 | 0 |
| 651 | TG | 2:40.71 | 0 | 0 |
| 652 | Duke Swampy | 2:40.77 | 0 | 0 |
| 653 | Archi | 2:40.85 | 0 | 0 |
| 654 | Fighter_C3 | 2:40.92 | 0 | 0 |
| 655 | a&b | 2:41.00 | 0 | 0 |
| 656 | AnalBreacher | 2:41.09 | 0 | 0 |
| 657 | DeathByDusk | 2:41.24 | 0 | 0 |
| 658 | Logo${ru} | 2:41.33 | 0 | 0 |
| 659 | Caffeinated Cow | 2:41.35 | 0 | 0 |
| 659 | Ahhrealpeople | 2:41.35 | 0 | 0 |
| 661 | Elderas | 2:41.37 | 0 | 0 |
| 662 | Pivot | 2:41.41 | 0 | 0 |
| 663 | Huntor | 2:41.71 | 0 | 0 |
| 664 | C4tch | 2:41.75 | 0 | 0 |
| 665 | Karna | 2:41.82 | 0 | 0 |
| 666 | Shi_doh | 2:41.90 | 0 | 0 |
| 667 | N-Jin | 2:41.99 | 0 | 0 |
| 668 | OneCent_HD | 2:42.30 | 0 | 0 |
| 669 | Azzy | 2:42.40 | 0 | 0 |
| 670 | R0gu3Sentin3l | 2:42.42 | 0 | 0 |
| 671 | Sunkaaaaaaaaan | 2:42.53 | 0 | 0 |
| 672 | rustihkov | 2:42.57 | 0 | 0 |
| 673 | Cheapo | 2:42.97 | 0 | 0 |
| 674 | NyaNekoEngine | 2:43.37 | 0 | 0 |
| 675 | jnfred | 2:43.40 | 0 | 0 |
| 676 | blue_alien_bg | 2:43.47 | 0 | 0 |
| 677 | troysmith14 | 2:43.51 | 0 | 0 |
| 678 | Isabella | 2:43.59 | 0 | 0 |
| 679 | Hawaiano | 2:43.71 | 0 | 0 |
| 680 | The Prophet | 2:43.91 | 0 | 0 |
| 681 | Adm | 2:44.12 | 0 | 0 |
| 682 | 🌪Dashie010203🌪 | 2:44.23 | 0 | 0 |
| 683 | That One Panda | 2:44.25 | 0 | 0 |
| 684 | Ignaya | 2:44.26 | 0 | 0 |
| 685 | ShadeSlayer24 | 2:44.30 | 0 | 0 |
| 686 | Dual Stream | 2:44.34 | 0 | 0 |
| 687 | darkarchon | 2:44.76 | 0 | 0 |
| 688 | IndusRobot | 2:44.78 | 0 | 0 |
| 688 | Vyneci | 2:44.78 | 0 | 0 |
| 690 | Splat | 2:44.88 | 0 | 0 |
| 691 | Afromation | 2:45.05 | 0 | 0 |
| 692 | Mr Elusive | 2:45.14 | 0 | 0 |
| 693 | Texugops☯ | 2:45.15 | 0 | 0 |
| 694 | Bios | 2:45.17 | 0 | 0 |
| 695 | Jehuty | 2:45.33 | 0 | 0 |
| 696 | Raiyson Terrorwing | 2:45.35 | 0 | 0 |
| 697 | Gidan | 2:45.38 | 0 | 0 |
| 698 | Silver Lloyd | 2:45.42 | 0 | 0 |
| 699 | Voxr | 2:45.43 | 0 | 0 |
| 700 | sevenofnone | 2:45.53 | 0 | 0 |
| 701 | Techj | 2:45.65 | 0 | 0 |
| 701 | petlander | 2:45.65 | 0 | 0 |
| 703 | Mathias | 2:45.79 | 0 | 0 |
| 704 | Waymint | 2:46.09 | 0 | 0 |
| 705 | iffy | 2:46.13 | 0 | 0 |
| 706 | Enso | 2:46.23 | 0 | 0 |
| 707 | CleverlyStoopid | 2:46.37 | 0 | 0 |
| 708 | Arca | 2:46.41 | 0 | 0 |
| 709 | BennLivid | 2:46.73 | 0 | 0 |
| 710 | PlΣXi | 2:46.78 | 0 | 0 |
| 711 | Kincaid | 2:46.92 | 0 | 0 |
| 712 | Amuzet | 2:46.94 | 0 | 0 |
| 713 | Roboraser | 2:47.08 | 0 | 0 |
| 714 | CoreOG | 2:47.14 | 0 | 0 |
| 715 | delicious Croutons | 2:47.57 | 0 | 0 |
| 716 | Teshi | 2:47.69 | 0 | 0 |
| 716 | The forgotten | 2:47.69 | 0 | 0 |
| 718 | Sugoi-desu (⊙‿⊙✿) | 2:47.95 | 0 | 0 |
| 719 | Pipsibean | 2:47.96 | 0 | 0 |
| 720 | NIRV007 | 2:48.09 | 0 | 0 |
| 721 | Spark7979 | 2:48.18 | 0 | 0 |
| 722 | Doodle | 2:48.21 | 0 | 0 |
| 723 | Spur | 2:48.34 | 0 | 0 |
| 724 | Traetors | 2:48.38 | 0 | 0 |
| 725 | Crysest | 2:48.45 | 0 | 0 |
| 726 | Maugan Ra | 2:48.74 | 0 | 0 |
| 727 | BiGdIcMiKe | 2:48.95 | 0 | 0 |
| 728 | Flaccid Assassin | 2:48.99 | 0 | 0 |
| 729 | Crown | 2:49.22 | 0 | 0 |
| 730 | Bunker475 | 2:49.61 | 0 | 0 |
| 731 | Ice Dragonhawk | 2:49.73 | 0 | 0 |
| 732 | ZeGURU | 2:49.99 | 0 | 0 |
| 733 | 01011011010 | 2:50.15 | 0 | 0 |
| 734 | mako2k12 | 2:50.26 | 0 | 0 |
| 735 | Ибупробебра | 2:50.51 | 0 | 0 |
| 736 | Stracciatella | 2:51.04 | 0 | 0 |
| 737 | BluntButters | 2:51.08 | 0 | 0 |
| 737 | Billy Bat | 2:51.08 | 0 | 0 |
| 739 | mailcty | 2:51.15 | 0 | 0 |
| 740 | AL3Xey | 2:51.18 | 0 | 0 |
| 741 | Meridius_IX / Lucas | 2:51.26 | 0 | 0 |
| 741 | ReadWriteError | 2:51.26 | 0 | 0 |
| 743 | spb1234 | 2:51.30 | 0 | 0 |
| 744 | Norminal | 2:51.38 | 0 | 0 |
| 745 | ~Astral Skies~ | 2:51.65 | 0 | 0 |
| 746 | qwertyuio | 2:51.81 | 0 | 0 |
| 747 | The Salt Is REAL | 2:52.37 | 0 | 0 |
| 748 | Grabuge | 2:52.38 | 0 | 0 |
| 749 | Running With Razors | 2:52.49 | 0 | 0 |
| 750 | Ungarr | 2:52.60 | 0 | 0 |
| 751 | Dotza | 2:52.85 | 0 | 0 |
| 752 | Blacky Stranger | 2:53.03 | 0 | 0 |
| 753 | RumekFuria | 2:53.04 | 0 | 0 |
| 754 | Yessica_ | 2:53.32 | 0 | 0 |
| 755 | Bram | 2:53.52 | 0 | 0 |
| 756 | OmNomPacman | 2:53.65 | 0 | 0 |
| 757 | Chromnostic | 2:53.68 | 0 | 0 |
| 758 | Delta | 2:53.69 | 0 | 0 |
| 759 | Abyss | 2:53.75 | 0 | 0 |
| 760 | Rip | 2:53.78 | 0 | 0 |
| 761 | Darkk_Chungus | 2:53.82 | 0 | 0 |
| 762 | enerszon | 2:54.18 | 0 | 0 |
| 763 | Caradog | 2:54.35 | 0 | 0 |
| 764 | Athice | 2:54.99 | 0 | 0 |
| 765 | Emerald_Pick | 2:55.00 | 0 | 0 |
| 766 | Huntzilla | 2:55.26 | 0 | 0 |
| 767 | Feanor | 2:55.35 | 0 | 0 |
| 768 | Albertmus | 2:55.38 | 0 | 0 |
| 769 | ℛ𝓊𝓃𝑒 | 2:55.64 | 0 | 0 |
| 770 | rezzonating | 2:55.81 | 0 | 0 |
| 771 | ✱ Ale | 2:55.87 | 0 | 0 |
| 772 | SauronGamer | 2:55.96 | 0 | 0 |
| 773 | GoldenDragon314 | 2:56.29 | 0 | 0 |
| 774 | SharoffKot | 2:56.31 | 0 | 0 |
| 775 | [NR] Miyu012 | 2:57.03 | 0 | 0 |
| 776 | Raisinbran | 2:57.05 | 0 | 0 |
| 776 | Ara | 2:57.05 | 0 | 0 |
| 778 | LEUCiS | 2:57.25 | 0 | 0 |
| 779 | 14k | 2:57.38 | 0 | 0 |
| 780 | oCL. Kiatight | 2:57.54 | 0 | 0 |
| 781 | Omega_Raptors | 2:57.71 | 0 | 0 |
| 782 | Nano Void | 2:57.82 | 0 | 0 |
| 783 | Hiddelgreyk | 2:57.87 | 0 | 0 |
| 784 | Glitchy | 2:57.97 | 0 | 0 |
| 785 | RinsDoll | 2:58.03 | 0 | 0 |
| 785 | Zimmerman | 2:58.03 | 0 | 0 |
| 787 | Tenth | 2:58.15 | 0 | 0 |
| 788 | synfire | 2:58.28 | 0 | 0 |
| 789 | Lore maker | 2:58.43 | 0 | 0 |
| 790 | rz zombie | 2:58.95 | 0 | 0 |
| 790 | Drafter | 2:58.95 | 0 | 0 |
| 792 | Funny Leg Jiggle | 2:59.08 | 0 | 0 |
| 793 | dryco | 2:59.52 | 0 | 0 |
| 794 | Enthrall Decree | 2:59.62 | 0 | 0 |
| 795 | AndonisLP | 2:59.65 | 0 | 0 |
| 796 | Treme | 3:00.21 | 0 | 0 |
| 797 | Obdimus | 3:00.39 | 0 | 0 |
| 798 | FenchellForelle | 3:00.46 | 0 | 0 |
| 799 | MrUnbecoming | 3:00.56 | 0 | 0 |
| 800 | mos | 3:00.58 | 0 | 0 |
| 800 | Shifted | 3:00.58 | 0 | 0 |
| 802 | Liningcorn9 | 3:00.67 | 0 | 0 |
| 803 | Dinkleberg | 3:00.85 | 0 | 0 |
| 804 | GetEmOtterHere | 3:01.08 | 0 | 0 |
| 805 | Aldebaran | 3:01.39 | 0 | 0 |
| 806 | Patches | 3:01.46 | 0 | 0 |
| 807 | JustB4DW0LF | 3:01.55 | 0 | 0 |
| 808 | Pedro | 3:01.77 | 0 | 0 |
| 809 | Tomformer | 3:01.89 | 0 | 0 |
| 810 | Lliane | 3:01.92 | 0 | 0 |
| 810 | Kalimbato | 3:01.92 | 0 | 0 |
| 812 | ZephyrArashi||TTV | 3:01.95 | 0 | 0 |
| 813 | LissomChunk | 3:02.10 | 0 | 0 |
| 814 | Sunn | 3:02.18 | 0 | 0 |
| 815 | But we're both girls! | 3:02.99 | 0 | 0 |
| 816 | Ember | 3:03.37 | 0 | 0 |
| 817 | Amored Dragon | 3:03.60 | 0 | 0 |
| 818 | Puchynho19 | 3:03.69 | 0 | 0 |
| 819 | Vinnie Scumbolli | 3:03.83 | 0 | 0 |
| 820 | Ad921 | 3:03.85 | 0 | 0 |
| 821 | Palinden | 3:03.91 | 0 | 0 |
| 822 | Michael_MaxPower | 3:04.27 | 0 | 0 |
| 823 | Loreckine | 3:04.36 | 0 | 0 |
| 824 | Mextrin | 3:04.37 | 0 | 0 |
| 825 | NetSlayer | 3:04.56 | 0 | 0 |
| 826 | PinkSlippers_ | 3:05.11 | 0 | 0 |
| 827 | Sr. Galán | 3:05.57 | 0 | 0 |
| 828 | DeathFish | 3:05.84 | 0 | 0 |
| 829 | Yah Mo | 3:06.29 | 0 | 0 |
| 830 | Buff Nuts | 3:06.35 | 0 | 0 |
| 831 | Natspy | 3:06.38 | 0 | 0 |
| 832 | Leon | 3:06.46 | 0 | 0 |
| 833 | Lumitas | 3:06.67 | 0 | 0 |
| 834 | MrJacksJamboree | 3:06.80 | 0 | 0 |
| 835 | Peter | 3:06.81 | 0 | 0 |
| 836 | Getty Image Egg Supreme | 3:06.94 | 0 | 0 |
| 837 | Kunya The Scoot | 3:07.18 | 0 | 0 |
| 838 | Yipp | 3:07.33 | 0 | 0 |
| 839 | hip crusher | 3:07.57 | 0 | 0 |
| 840 | Dany W. | 3:07.66 | 0 | 0 |
| 841 | Count Spatula | 3:07.83 | 0 | 0 |
| 842 | Bob_Ross_Sauce | 3:07.88 | 0 | 0 |
| 843 | Derrick1188 | 3:08.07 | 0 | 0 |
| 844 | Pink Naruto | 3:08.17 | 0 | 0 |
| 845 | Stiefe300 | 3:08.19 | 0 | 0 |
| 846 | Traxun | 3:08.44 | 0 | 0 |
| 847 | --TuttiFrutti-- | 3:08.98 | 0 | 0 |
| 848 | SkyCaptain502 | 3:09.27 | 0 | 0 |
| 849 | Marshall | 3:09.50 | 0 | 0 |
| 850 | Reinforce Virta | 3:09.54 | 0 | 0 |
| 851 | Joyce | 3:09.56 | 0 | 0 |
| 852 | neo_anderson | 3:09.60 | 0 | 0 |
| 853 | ToastedBrown | 3:09.63 | 0 | 0 |
| 854 | Шоколадка:) | 3:09.75 | 0 | 0 |
| 855 | FreeFull | 3:09.90 | 0 | 0 |
| 856 | Arn-Mulet | 3:09.92 | 0 | 0 |
| 857 | StrikeS1S. | 3:09.96 | 0 | 0 |
| 858 | CS | 3:10.03 | 0 | 0 |
| 859 | D2C | Chrisc02 | 3:10.11 | 0 | 0 |
| 860 | cheerso boombastik | 3:10.16 | 0 | 0 |
| 861 | R | 3:10.54 | 0 | 0 |
| 861 | TTV.WordWord_ | 3:10.54 | 0 | 0 |
| 863 | Burger and Car Moment | 3:10.85 | 0 | 0 |
| 864 | Frekil99 | 3:11.21 | 0 | 0 |
| 865 | Orange Bomb | 3:11.44 | 0 | 0 |
| 866 | Reus | 3:11.54 | 0 | 0 |
| 867 | HotGamer1995 | 3:11.56 | 0 | 0 |
| 868 | Skeleton | 3:11.59 | 0 | 0 |
| 869 | Snow way it's AJD2k | 3:11.72 | 0 | 0 |
| 870 | Mike | 3:12.12 | 0 | 0 |
| 871 | Quantum Glitch | 3:12.40 | 0 | 0 |
| 872 | Cookie Dealer | 3:12.46 | 0 | 0 |
| 872 | SomeRsilent | 3:12.46 | 0 | 0 |
| 874 | Scorchgid | 3:12.48 | 0 | 0 |
| 875 | CrimsonFez | 3:12.92 | 0 | 0 |
| 876 | Misuri | 3:13.02 | 0 | 0 |
| 877 | GD Taylor | 3:13.25 | 0 | 0 |
| 878 | Dango | 3:13.51 | 0 | 0 |
| 879 | Bombadilla | 3:13.94 | 0 | 0 |
| 880 | SGiB2001 | 3:14.08 | 0 | 0 |
| 881 | Flarble | 3:14.09 | 0 | 0 |
| 882 | [AHP]Shovel/Gameslife | 3:14.48 | 0 | 0 |
| 883 | Requiem of Souls | 3:15.32 | 0 | 0 |
| 884 | Ventras | 3:15.72 | 0 | 0 |
| 885 | Freibier For Future | 3:15.90 | 0 | 0 |
| 886 | Vandalite | 3:16.22 | 0 | 0 |
| 887 | Kouldrek | 3:16.23 | 0 | 0 |
| 888 | Counter Strike | 3:16.26 | 0 | 0 |
| 889 | AVeryTastyCactus | 3:16.43 | 0 | 0 |
| 890 | ProtoGondwana | 3:16.77 | 0 | 0 |
| 891 | Sriracha_Man | 3:16.81 | 0 | 0 |
| 892 | FreakingAwesomeWooper | 3:16.92 | 0 | 0 |
| 893 | Yum Yum | 3:16.93 | 0 | 0 |
| 894 | MrHolmes | 3:17.03 | 0 | 0 |
| 895 | Onur | 3:17.69 | 0 | 0 |
| 896 | GroovyDoo | 3:17.90 | 0 | 0 |
| 897 | onyxglow | 3:18.02 | 0 | 0 |
| 898 | tipek360 | 3:18.05 | 0 | 0 |
| 899 | josh | 3:18.20 | 0 | 0 |
| 900 | Hydrochoerus | 3:18.68 | 0 | 0 |
| 901 | thunderella | 3:19.09 | 0 | 0 |
| 902 | Bundao da 2B Explode de Gostoso | 3:19.12 | 0 | 0 |
| 903 | Pipe | 3:19.30 | 0 | 0 |
| 904 | DJ McBirde | 3:19.61 | 0 | 0 |
| 905 | Nirei Yuito | 3:19.82 | 0 | 0 |
| 906 | Lupeling | 3:19.93 | 0 | 0 |
| 907 | Gnarrang | 3:20.29 | 0 | 0 |
| 908 | SWAT | 3:20.75 | 0 | 0 |
| 909 | Satoshi | 3:21.15 | 0 | 0 |
| 910 | SLOPSLOPPER | 3:21.80 | 0 | 0 |
| 911 | BingBong | 3:22.42 | 0 | 0 |
| 912 | Muad'Dib | 3:22.45 | 0 | 0 |
| 913 | pie | 3:22.47 | 0 | 0 |
| 914 | BesRezen | 3:22.54 | 0 | 0 |
| 915 | Axhilis | 3:22.61 | 0 | 0 |
| 916 | noodle | 3:22.78 | 0 | 0 |
| 917 | meziter260 | 3:23.08 | 0 | 0 |
| 918 | Hazy on the details | 3:23.35 | 0 | 0 |
| 919 | Demurd | 3:23.91 | 0 | 0 |
| 920 | Lampshaede | 3:24.06 | 0 | 0 |
| 921 | NekoNachi | 3:24.11 | 0 | 0 |
| 922 | Ròókie Red | 3:24.23 | 0 | 0 |
| 923 | philipborg | 3:25.07 | 0 | 0 |
| 924 | boned avery | 3:25.13 | 0 | 0 |
| 925 | Gooch Wizard | 3:25.63 | 0 | 0 |
| 926 | Gigs | 3:25.68 | 0 | 0 |
| 927 | JokersBullet12 | 3:25.78 | 0 | 0 |
| 928 | gilnners | 3:25.99 | 0 | 0 |
| 928 | PowerLay | 3:25.99 | 0 | 0 |
| 930 | KingSpammerNerd | 3:26.21 | 0 | 0 |
| 931 | Phleppse | 3:26.55 | 0 | 0 |
| 932 | KinoTP | 3:26.71 | 0 | 0 |
| 933 | McCoy | 3:26.92 | 0 | 0 |
| 934 | Hiintz | 3:26.95 | 0 | 0 |
| 935 | mapachesito123 | 3:27.28 | 0 | 0 |
| 936 | Gamerudito | 3:27.43 | 0 | 0 |
| 937 | femptocrisis | 3:28.11 | 0 | 0 |
| 938 | Agroman12 | 3:28.20 | 0 | 0 |
| 939 | $teveɳ | 3:28.72 | 0 | 0 |
| 940 | rich.records | 3:29.29 | 0 | 0 |
| 941 | 54mm7 | 3:29.52 | 0 | 0 |
| 942 | TheGingerSpartan | 3:30.44 | 0 | 0 |
| 943 | 📺 V̶O̶X̶ ̶T̶V̶ | 3:30.72 | 0 | 0 |
| 944 | Dantalion | 3:30.83 | 0 | 0 |
| 945 | eisbaer | 3:31.02 | 0 | 0 |
| 946 | Vueko | 3:31.83 | 0 | 0 |
| 947 | drnk | 3:31.92 | 0 | 0 |
| 948 | Cinder_R0se | 3:32.05 | 0 | 0 |
| 949 | Anerix (Paradox) Cormin Quanadol | 3:32.28 | 0 | 0 |
| 950 | Sibsen | 3:32.40 | 0 | 0 |
| 951 | BEPISMAN.exe | 3:32.71 | 0 | 0 |
| 952 | ReverseUno | 3:33.32 | 0 | 0 |
| 953 | [Dr.]Drunk Cody | 3:33.75 | 0 | 0 |
| 954 | rocmanx654 | 3:34.62 | 0 | 0 |
| 955 | Gods brother Bob (GBB) | 3:34.64 | 0 | 0 |
| 956 | energize | 3:34.68 | 0 | 0 |
| 957 | MightyNifty | 3:34.81 | 0 | 0 |
| 958 | Ellena | 3:34.84 | 0 | 0 |
| 959 | FENT FIEND | 3:35.29 | 0 | 0 |
| 960 | VegitOwO | 3:35.44 | 0 | 0 |
| 961 | MamaClockie | 3:35.59 | 0 | 0 |
| 962 | Corecii | 3:35.68 | 0 | 0 |
| 963 | Bara_Coded[FR] | 3:36.05 | 0 | 0 |
| 964 | LexiNadia | 3:36.39 | 0 | 0 |
| 965 | Gemis037 | 3:36.63 | 0 | 0 |
| 966 | JaimmyShine | 3:36.67 | 0 | 0 |
| 967 | Idranoid | 3:36.69 | 0 | 0 |
| 968 | HesyoS | 3:37.81 | 0 | 0 |
| 969 | IcedSickle | 3:38.25 | 0 | 0 |
| 970 | KIRPAT | 3:38.48 | 0 | 0 |
| 971 | Andes | 3:39.08 | 0 | 0 |
| 972 | The-Lemme | 3:39.98 | 0 | 0 |
| 973 | Kilacoust | 3:40.65 | 0 | 0 |
| 974 | Yngvarr | 3:40.70 | 0 | 0 |
| 975 | NanoFren | 3:41.32 | 0 | 0 |
| 976 | Ceipafaux | 3:41.88 | 0 | 0 |
| 977 | Tokyo. | 3:41.97 | 0 | 0 |
| 978 | even creepier loser hatsune miku | 3:42.29 | 0 | 0 |
| 979 | Kresko | 3:42.98 | 0 | 0 |
| 980 | RPK | 3:43.13 | 0 | 0 |
| 981 | Pregnant | 3:43.29 | 0 | 0 |
| 982 | Kama | 3:43.39 | 0 | 0 |
| 983 | A Legal Alien | 3:43.80 | 0 | 0 |
| 984 | Not_Izaah | 3:44.24 | 0 | 0 |
| 985 | fooffie | 3:44.40 | 0 | 0 |
| 986 | Well Shit | 3:44.71 | 0 | 0 |
| 987 | Ennui Videogame Nerd | 3:45.38 | 0 | 0 |
| 988 | El oh el | 3:45.69 | 0 | 0 |
| 989 | SmolSucc | 3:46.29 | 0 | 0 |
| 990 | Black_Hand | 3:46.77 | 0 | 0 |
| 991 | MC ハマー | 3:46.95 | 0 | 0 |
| 992 | ketikidistv | 3:47.23 | 0 | 0 |
| 993 | potion | 3:47.47 | 0 | 0 |
| 994 | Lord Cucumber | 3:47.49 | 0 | 0 |
| 995 | Seastone | 3:48.24 | 0 | 0 |
| 996 | FantasyGamer | 3:48.42 | 0 | 0 |
| 997 | Krunch | 3:48.73 | 0 | 0 |
| 998 | caelence | 3:50.31 | 0 | 0 |
| 999 | Art | 3:50.76 | 0 | 0 |
| 1,000 | MR.CH33ZZY 63 | 3:51.28 | 0 | 0 |
| 1,001 | isuckass68 | 3:52.20 | 0 | 0 |
| 1,002 | andy-bobandy | 3:52.49 | 0 | 0 |
| 1,003 | NATINAUM | 3:53.00 | 0 | 0 |
| 1,004 | Queen Skittles | 3:53.46 | 0 | 0 |
| 1,005 | Meisolus | 3:53.63 | 0 | 0 |
| 1,006 | Despo_357 | 3:53.78 | 0 | 0 |
| 1,007 | Dinkle Dankus | 3:53.95 | 0 | 0 |
| 1,008 | [deleted] | 3:54.17 | 0 | 0 |
| 1,009 | GreyOathDragon | 3:54.22 | 0 | 0 |
| 1,010 | Killer | 3:54.52 | 0 | 0 |
| 1,011 | Schranzinator | 3:54.98 | 0 | 0 |
| 1,012 | davislb2 | 3:55.21 | 0 | 0 |
| 1,013 | WYR3 | 3:55.22 | 0 | 0 |
| 1,014 | Skeleton | 3:55.53 | 0 | 0 |
| 1,015 | God of Hell Fire | 3:55.81 | 0 | 0 |
| 1,016 | BappoYo | 3:56.35 | 0 | 0 |
| 1,017 | BioPaw | 3:57.92 | 0 | 0 |
| 1,018 | Sperzieb00n | 3:58.15 | 0 | 0 |
| 1,019 | rowie324 | 3:58.58 | 0 | 0 |
| 1,019 | ploo | 3:58.58 | 0 | 0 |
| 1,021 | TurtleByte | 3:59.08 | 0 | 0 |
| 1,022 | Brior | 4:00.05 | 0 | 0 |
| 1,023 | The 14 ème | 4:00.11 | 0 | 0 |
| 1,024 | byanymeansnecessary | 4:00.80 | 0 | 0 |
| 1,025 | Augustus | 4:00.95 | 0 | 0 |
| 1,026 | Apple | 4:01.02 | 0 | 0 |
| 1,027 | Admiral Pond Scum | 4:01.72 | 0 | 0 |
| 1,028 | /90R | 4:02.64 | 0 | 0 |
| 1,029 | Robert243 | 4:03.37 | 0 | 0 |
| 1,030 | lira.rospionne | 4:03.62 | 0 | 0 |
| 1,031 | Ruff | 4:04.16 | 0 | 0 |
| 1,032 | Missippi_Hippie | 4:04.47 | 0 | 0 |
| 1,033 | sohnio | 4:04.49 | 0 | 0 |
| 1,034 | Ⓜⓘⓡⓐⓒⓛⓔ | 4:04.89 | 0 | 0 |
| 1,035 | Your Fav Baka | 4:05.50 | 0 | 0 |
| 1,036 | Alyx | 4:07.43 | 0 | 0 |
| 1,037 | XD | 4:08.70 | 0 | 0 |
| 1,038 | FluxCipherRae | 4:09.80 | 0 | 0 |
| 1,039 | Bl4ckh3ll | 4:09.96 | 0 | 0 |
| 1,040 | Summer | 4:10.84 | 0 | 0 |
| 1,041 | Ber | 4:11.36 | 0 | 0 |
| 1,042 | A Barefoot Walk Down Lego St. | 4:12.36 | 0 | 0 |
| 1,043 | Sreok | 4:13.70 | 0 | 0 |
| 1,044 | Smaxy | 4:14.54 | 0 | 0 |
| 1,045 | sad soft goth | 4:15.25 | 0 | 0 |
| 1,046 | Brando Multin | 4:15.34 | 0 | 0 |
| 1,047 | qja5977 | 4:16.86 | 0 | 0 |
| 1,048 | elder matthew | 4:22.67 | 0 | 0 |
| 1,049 | Disconnected | 4:24.29 | 0 | 0 |
| 1,050 | Who | 4:26.58 | 0 | 0 |
| 1,051 | _olivia | 4:28.18 | 0 | 0 |
| 1,052 | eeah | 4:32.60 | 0 | 0 |
| 1,053 | CaAl2Si2O8 NaAlSi3O8 | 4:33.03 | 0 | 0 |
| 1,054 | Teapot Possum | 4:33.71 | 0 | 0 |
| 1,055 | Taro | 4:36.04 | 0 | 0 |
| 1,056 | RedSmegz | 4:36.98 | 0 | 0 |
| 1,057 | CookieCake | 4:42.70 | 0 | 0 |
| 1,058 | wololo priest | 4:43.95 | 0 | 0 |
| 1,059 | bugsinsidemyskin | 4:45.50 | 0 | 0 |
| 1,060 | Parking_Only | 4:45.68 | 0 | 0 |
| 1,061 | OMANEYE | 4:48.40 | 0 | 0 |
| 1,062 | . | 4:49.30 | 0 | 0 |
| 1,063 | crimes.against.art | 4:49.38 | 0 | 0 |
| 1,064 | Ilan | 4:51.41 | 0 | 0 |
| 1,065 | Snappy_Boi | 4:52.06 | 0 | 0 |
| 1,066 | Luminousturtle | 4:52.18 | 0 | 0 |
| 1,067 | Mx | 4:53.69 | 0 | 0 |
| 1,068 | Holiday | 5:02.36 | 0 | 0 |
| 1,069 | ThumpieBunnyEve | 5:05.05 | 0 | 0 |
| 1,070 | IctCat | 5:13.01 | 0 | 0 |
| 1,071 | O DÖNENE KADAR YOKUM | 5:13.12 | 0 | 0 |
| 1,072 | ZW98 | 5:13.32 | 0 | 0 |
| 1,073 | Azure | 5:22.72 | 0 | 0 |
| 1,074 | Žydras | 5:26.67 | 0 | 0 |
| 1,075 | conduit | 5:31.40 | 0 | 0 |
| 1,076 | BBQ-Bacon-Pizza | 5:32.35 | 0 | 0 |
| 1,077 | Twiloore | 5:39.13 | 0 | 0 |
| 1,078 | Duderino | 5:39.63 | 0 | 0 |
| 1,079 | Bohemius | 5:43.72 | 0 | 0 |
| 1,080 | The Warcube | 5:44.95 | 0 | 0 |
| 1,081 | oshunter124 | 5:48.38 | 0 | 0 |
| 1,082 | Zalky | 5:51.31 | 0 | 0 |
| 1,083 | Sextooth | 5:52.70 | 0 | 0 |
| 1,084 | TITAN OF THIGHS | 5:55.07 | 0 | 0 |
| 1,085 | MrBrain | 6:06.61 | 0 | 0 |
| 1,086 | gwenaël | 6:42.70 | 0 | 0 |
| 1,087 | Hooligan | 6:45.28 | 0 | 0 |
| 1,088 | Kaspar Orange | 6:45.40 | 0 | 0 |
| 1,089 | Shanikan | 6:55.79 | 0 | 0 |
| 1,090 | Josseph Pretor De La Libertad | 6:58.91 | 0 | 0 |
| 1,091 | ........... | 7:03.36 | 0 | 0 |
| 1,092 | 1778438055 | 9:09.11 | 0 | 0 |
HoldGrip